Time;durP1;ratioP1;P1;durP2;ratioP2;P2;SDS_P1;SDS_P2;PMS_P1;PMS_P2;Temp;Humidity;BMP_temperature;BMP_pressure;BME280_temperature;BME280_humidity;BME280_pressure;Samples;Min_cycle;Max_cycle;Signal;HPM_P1;HPM_P2
2021/12/12 00:00:34;;;;;;;1999.90;999.90;;;1.30;99.90;;;;;;5043341;28;20541;-64
2021/12/12 00:03:10;;;;;;;1999.90;999.90;;;1.70;99.90;;;;;;5040065;28;20443;-64
2021/12/12 00:05:41;;;;;;;1999.90;999.90;;;1.70;99.90;;;;;;5039424;28;20958;-63
2021/12/12 00:08:09;;;;;;;1999.90;999.90;;;1.70;99.90;;;;;;5039180;28;20471;-64
2021/12/12 00:10:39;;;;;;;1999.90;999.90;;;1.70;99.90;;;;;;5039731;28;20516;-65
2021/12/12 00:13:10;;;;;;;1999.90;999.90;;;1.70;99.90;;;;;;5039903;28;20451;-64
2021/12/12 00:15:36;;;;;;;1999.90;999.90;;;1.70;99.90;;;;;;5039644;28;20450;-66
2021/12/12 00:18:05;;;;;;;1999.90;999.90;;;1.70;99.90;;;;;;5038102;28;20548;-64
2021/12/12 00:20:33;;;;;;;1999.90;999.90;;;1.80;99.90;;;;;;5038965;28;20460;-62
2021/12/12 00:23:01;;;;;;;1999.90;999.90;;;1.90;99.90;;;;;;5039671;28;20458;-64
2021/12/12 00:25:29;;;;;;;1999.90;999.90;;;1.80;99.90;;;;;;5039331;28;20536;-64
2021/12/12 00:27:57;;;;;;;1999.90;999.90;;;1.90;99.90;;;;;;5039635;28;20560;-65
2021/12/12 00:30:24;;;;;;;1999.90;999.90;;;1.90;99.90;;;;;;5038910;28;20493;-68
2021/12/12 00:32:52;;;;;;;1999.90;999.90;;;1.90;99.90;;;;;;5040208;28;20516;-66
2021/12/12 00:35:21;;;;;;;1999.90;999.90;;;1.90;99.90;;;;;;5038780;28;20460;-65
2021/12/12 00:37:50;;;;;;;1999.90;999.90;;;2.00;99.90;;;;;;5038308;28;20524;-67
2021/12/12 00:40:23;;;;;;;1999.90;999.90;;;2.00;99.90;;;;;;5038833;28;20936;-65
2021/12/12 00:42:51;;;;;;;1999.90;999.90;;;2.00;99.90;;;;;;5038307;28;20456;-65
2021/12/12 00:45:18;;;;;;;1999.90;999.90;;;2.00;99.90;;;;;;5038875;28;20616;-64
2021/12/12 00:47:47;;;;;;;1999.90;999.90;;;1.90;99.90;;;;;;5038496;28;20907;-66
2021/12/12 00:50:17;;;;;;;1999.90;999.90;;;1.90;99.90;;;;;;5039145;28;20463;-65
2021/12/12 00:52:47;;;;;;;1999.90;999.90;;;1.80;99.90;;;;;;5039854;28;20446;-65
2021/12/12 00:55:14;;;;;;;1999.90;999.90;;;1.90;99.90;;;;;;5038055;28;20496;-65
2021/12/12 00:57:41;;;;;;;1999.90;999.90;;;1.90;99.90;;;;;;5038674;28;20488;-65
2021/12/12 01:00:10;;;;;;;1999.90;999.90;;;2.00;99.90;;;;;;5038818;28;20908;-65
2021/12/12 01:02:37;;;;;;;1999.90;999.90;;;1.90;99.90;;;;;;5039110;28;20442;-64
2021/12/12 01:05:07;;;;;;;1999.90;999.90;;;1.90;99.90;;;;;;5038646;28;20474;-65
2021/12/12 01:07:37;;;;;;;1999.90;999.90;;;1.90;99.90;;;;;;5038180;28;20471;-65
2021/12/12 01:10:12;;;;;;;1999.90;999.90;;;2.00;99.90;;;;;;5039080;28;20508;-64
2021/12/12 01:12:39;;;;;;;1999.90;999.90;;;2.00;99.90;;;;;;5038444;28;20512;-67
2021/12/12 01:15:12;;;;;;;1999.90;999.90;;;2.10;99.90;;;;;;5038623;28;21002;-65
2021/12/12 01:17:41;;;;;;;1999.90;999.90;;;2.30;99.90;;;;;;5037338;28;20549;-65
2021/12/12 01:20:15;;;;;;;1999.90;999.90;;;2.30;99.90;;;;;;5037309;28;20875;-65
2021/12/12 01:22:43;;;;;;;1999.90;999.90;;;2.40;99.90;;;;;;5036451;28;20443;-66
2021/12/12 01:25:15;;;;;;;1999.90;999.90;;;2.40;99.90;;;;;;5038061;28;20482;-69
2021/12/12 01:27:42;;;;;;;1999.90;999.90;;;2.40;99.90;;;;;;5038284;28;20475;-65
2021/12/12 01:30:12;;;;;;;1999.90;999.90;;;2.40;99.90;;;;;;5037842;28;20457;-65
2021/12/12 01:32:40;;;;;;;1999.90;999.90;;;2.40;99.90;;;;;;5037687;28;20455;-65
2021/12/12 01:35:14;;;;;;;1999.90;999.90;;;2.50;99.90;;;;;;5037432;28;20443;-67
2021/12/12 01:37:50;;;;;;;1999.90;999.90;;;2.50;99.90;;;;;;5038537;28;20528;-65
2021/12/12 01:40:25;;;;;;;1999.90;999.90;;;2.60;99.90;;;;;;5038191;28;20449;-65
2021/12/12 01:42:56;;;;;;;1999.90;999.90;;;2.60;99.90;;;;;;5037477;28;20821;-65
2021/12/12 01:45:28;;;;;;;1999.90;999.90;;;2.60;99.90;;;;;;5037633;28;20474;-65
2021/12/12 01:47:59;;;;;;;1999.90;999.90;;;2.60;99.90;;;;;;5037692;28;20812;-64
2021/12/12 01:50:32;;;;;;;1999.90;999.90;;;2.60;99.90;;;;;;5039258;28;20854;-66
2021/12/12 01:53:02;;;;;;;1999.90;999.90;;;2.50;99.90;;;;;;5037688;28;20436;-65
2021/12/12 01:55:36;;;;;;;1999.90;999.90;;;2.50;99.90;;;;;;5037556;28;20466;-66
2021/12/12 01:58:07;;;;;;;1999.90;999.90;;;2.60;99.90;;;;;;5034201;28;20471;-65
2021/12/12 02:00:41;;;;;;;1999.90;999.90;;;2.70;99.90;;;;;;5031770;28;20451;-65
2021/12/12 02:03:11;;;;;;;1999.90;999.90;;;2.80;99.90;;;;;;5033346;28;20485;-64
2021/12/12 02:05:39;;;;;;;1999.90;999.90;;;2.90;99.90;;;;;;5041705;28;20544;-64
2021/12/12 02:08:10;;;;;;;1999.90;999.90;;;3.00;99.90;;;;;;5051778;28;20470;-65
2021/12/12 02:10:41;;;;;;;1999.90;999.90;;;3.00;99.90;;;;;;5051070;28;20434;-65
2021/12/12 02:13:14;;;;;;;1999.90;999.90;;;2.90;99.90;;;;;;5062643;28;20481;-66
2021/12/12 02:15:44;;;;;;;1999.90;999.90;;;2.90;99.90;;;;;;5064096;28;20435;-64
2021/12/12 02:18:14;;;;;;;1999.90;999.90;;;2.90;99.90;;;;;;5065540;28;20489;-66
2021/12/12 02:20:53;;;;;;;1999.90;999.90;;;2.90;99.90;;;;;;5059528;28;20857;-65
2021/12/12 02:23:31;;;;;;;1999.90;999.90;;;2.90;99.90;;;;;;5053552;28;21022;-66
2021/12/12 02:37:00;;;;;;;1999.90;999.90;;;2.90;99.90;;;;;;5051063;28;20497;-66
2021/12/12 02:39:29;;;;;;;1999.90;999.90;;;2.80;99.90;;;;;;5049079;28;20440;-66
2021/12/12 02:42:00;;;;;;;1999.90;999.90;;;3.10;99.90;;;;;;5050606;28;20477;-66
2021/12/12 02:44:31;;;;;;;1999.90;999.90;;;3.30;99.90;;;;;;5050369;28;20885;-66
2021/12/12 02:47:00;;;;;;;1999.90;999.90;;;3.40;99.90;;;;;;5047882;28;20490;-69
2021/12/12 02:49:39;;;;;;;1999.90;999.90;;;3.50;99.90;;;;;;5046907;28;20447;-65
2021/12/12 02:52:10;;;;;;;1999.90;999.90;;;3.40;99.90;;;;;;5046767;28;20514;-66
2021/12/12 02:54:38;;;;;;;1999.90;999.90;;;3.50;99.90;;;;;;5039795;28;20462;-66
2021/12/12 02:57:06;;;;;;;1999.90;999.90;;;3.50;99.90;;;;;;5037143;28;20479;-66
2021/12/12 02:59:35;;;;;;;1999.90;999.90;;;3.50;99.90;;;;;;5039487;28;21166;-66
2021/12/12 03:02:06;;;;;;;1999.90;999.90;;;3.40;99.90;;;;;;5041333;28;20455;-64
2021/12/12 03:04:33;;;;;;;1999.90;999.90;;;3.20;99.90;;;;;;5040969;28;20789;-66
2021/12/12 03:07:01;;;;;;;1999.90;999.90;;;3.20;99.90;;;;;;5040166;28;21006;-65
2021/12/12 03:09:30;;;;;;;1999.90;999.90;;;3.20;99.90;;;;;;5054004;28;20449;-68
2021/12/12 03:12:01;;;;;;;1999.90;999.90;;;3.10;99.90;;;;;;5058185;28;20458;-68
2021/12/12 03:14:32;;;;;;;1999.90;999.90;;;3.10;99.90;;;;;;5058647;28;20440;-67
2021/12/12 03:16:59;;;;;;;1999.90;999.90;;;3.10;99.90;;;;;;5056220;28;20482;-66
2021/12/12 03:19:26;;;;;;;1999.90;999.90;;;3.00;99.90;;;;;;5057083;28;20524;-66
2021/12/12 03:21:53;;;;;;;1999.90;999.90;;;3.10;99.90;;;;;;5056480;28;20477;-66
2021/12/12 03:24:25;;;;;;;1999.90;999.90;;;3.30;99.90;;;;;;5048206;28;20501;-66
2021/12/12 03:26:55;;;;;;;1999.90;999.90;;;3.30;99.90;;;;;;5041443;28;20481;-65
2021/12/12 03:29:25;;;;;;;1999.90;999.90;;;3.50;99.90;;;;;;5039797;28;20497;-65
2021/12/12 03:31:57;;;;;;;1999.90;999.90;;;3.60;99.90;;;;;;5034316;28;20493;-65
2021/12/12 03:34:27;;;;;;;1999.90;999.90;;;3.60;99.90;;;;;;5034306;28;20479;-65
2021/12/12 03:36:54;;;;;;;1999.90;999.90;;;3.60;99.90;;;;;;5033906;28;20513;-66
2021/12/12 03:39:24;;;;;;;1999.90;999.90;;;3.60;99.90;;;;;;5033967;28;20443;-65
2021/12/12 03:41:52;;;;;;;1999.90;999.90;;;3.60;99.90;;;;;;5035056;28;20509;-65
2021/12/12 03:44:22;;;;;;;1999.90;999.90;;;3.50;99.90;;;;;;5034261;28;20450;-66
2021/12/12 03:46:53;;;;;;;1999.90;999.90;;;3.40;99.90;;;;;;5033926;28;20463;-66
2021/12/12 03:49:21;;;;;;;1999.90;999.90;;;3.40;99.90;;;;;;5033941;28;20447;-66
2021/12/12 03:51:49;;;;;;;1999.90;999.90;;;3.40;99.90;;;;;;5033504;28;20500;-65
2021/12/12 03:54:17;;;;;;;1999.90;999.90;;;3.50;99.90;;;;;;5034005;28;20443;-64
2021/12/12 03:56:45;;;;;;;1999.90;999.90;;;3.40;99.90;;;;;;5037849;28;20470;-65
2021/12/12 03:59:16;;;;;;;1999.90;999.90;;;3.40;99.90;;;;;;5040045;28;20450;-64
2021/12/12 04:01:47;;;;;;;1999.90;999.90;;;3.40;99.90;;;;;;5039183;28;21054;-65
2021/12/12 04:04:19;;;;;;;1999.90;999.90;;;3.30;99.90;;;;;;5040317;28;20490;-66
2021/12/12 04:06:46;;;;;;;1999.90;999.90;;;3.30;99.90;;;;;;5039370;28;20891;-67
2021/12/12 04:09:13;;;;;;;1999.90;999.90;;;3.20;99.90;;;;;;5039377;28;20451;-66
2021/12/12 04:11:46;;;;;;;1999.90;999.90;;;3.10;99.90;;;;;;5039072;28;20454;-65
2021/12/12 04:14:13;;;;;;;1999.90;999.90;;;3.00;99.90;;;;;;5039396;28;20443;-66
2021/12/12 04:16:43;;;;;;;1999.90;999.90;;;2.90;99.90;;;;;;5037866;28;20497;-67
2021/12/12 04:19:11;;;;;;;1999.90;999.90;;;2.90;99.90;;;;;;5039388;28;20447;-66
2021/12/12 04:21:40;;;;;;;1999.90;999.90;;;2.60;99.90;;;;;;5038930;28;20528;-65
2021/12/12 04:24:09;;;;;;;1999.90;999.90;;;2.70;99.90;;;;;;5061387;22;20502;-69
2021/12/12 04:26:38;;;;;;;1999.90;999.90;;;2.60;99.90;;;;;;5048999;28;20486;-70
2021/12/12 04:29:08;;;;;;;1999.90;999.90;;;2.50;99.90;;;;;;5048932;28;20472;-69
2021/12/12 04:31:35;;;;;;;1999.90;999.90;;;2.60;99.90;;;;;;5049144;28;20443;-68
2021/12/12 04:34:04;;;;;;;1999.90;999.90;;;2.50;99.90;;;;;;5050206;28;20462;-68
2021/12/12 04:36:34;;;;;;;1999.90;999.90;;;2.50;99.90;;;;;;5049254;28;20504;-69
2021/12/12 04:39:08;;;;;;;1999.90;999.90;;;2.70;99.90;;;;;;5048685;28;20446;-68
2021/12/12 04:41:35;;;;;;;1999.90;999.90;;;2.60;99.90;;;;;;5048844;28;20500;-68
2021/12/12 04:44:02;;;;;;;1999.90;999.90;;;2.60;99.90;;;;;;5049141;28;20470;-68
2021/12/12 04:49:54;;;;;;;1999.90;999.90;;;2.60;99.90;;;;;;5049178;28;20624;-68
2021/12/12 04:52:11;;;;;;;1999.90;999.90;;;2.60;99.90;;;;;;5049262;28;20524;-68
2021/12/12 04:54:44;;;;;;;1999.90;999.90;;;2.70;99.90;;;;;;5049062;28;20520;-68
2021/12/12 04:57:16;;;;;;;1999.90;999.90;;;2.80;99.90;;;;;;5049035;28;20450;-69
2021/12/12 04:59:47;;;;;;;1999.90;999.90;;;2.70;99.90;;;;;;5048564;28;20919;-68
2021/12/12 05:02:21;;;;;;;1999.90;999.90;;;2.60;99.90;;;;;;5048517;28;20450;-68
2021/12/12 05:04:55;;;;;;;1999.90;999.90;;;2.60;99.90;;;;;;5048635;28;20485;-67
2021/12/12 05:07:31;;;;;;;1999.90;999.90;;;2.60;99.90;;;;;;5049054;28;20434;-68
2021/12/12 05:10:05;;;;;;;1999.90;999.90;;;2.60;99.90;;;;;;5048994;28;20860;-68
2021/12/12 05:12:35;;;;;;;1999.90;999.90;;;2.70;99.90;;;;;;5048107;28;20485;-65
2021/12/12 05:15:10;;;;;;;1999.90;999.90;;;2.80;99.90;;;;;;5048060;28;20447;-67
2021/12/12 05:17:40;;;;;;;1999.90;999.90;;;2.60;99.90;;;;;;5048331;28;20507;-68
2021/12/12 05:20:10;;;;;;;1999.90;999.90;;;2.60;99.90;;;;;;5048827;28;20549;-68
2021/12/12 05:22:40;;;;;;;1999.90;999.90;;;2.70;99.90;;;;;;5047552;28;20512;-69
2021/12/12 05:25:14;;;;;;;1999.90;999.90;;;2.70;99.90;;;;;;5048787;28;20587;-68
2021/12/12 05:27:42;;;;;;;1999.90;999.90;;;2.70;99.90;;;;;;5048416;28;20454;-68
2021/12/12 05:30:14;;;;;;;1999.90;999.90;;;2.70;99.90;;;;;;5048391;28;20959;-68
2021/12/12 05:32:42;;;;;;;1999.90;999.90;;;2.70;99.90;;;;;;5047689;28;20504;-67
2021/12/12 05:35:13;;;;;;;1999.90;999.90;;;2.70;99.90;;;;;;5048018;28;20443;-68
2021/12/12 05:37:40;;;;;;;1999.90;999.90;;;2.80;99.90;;;;;;5048159;28;20512;-68
2021/12/12 05:40:11;;;;;;;1999.90;999.90;;;2.80;99.90;;;;;;5048192;28;20469;-68
2021/12/12 05:42:39;;;;;;;1999.90;999.90;;;2.80;99.90;;;;;;5048086;28;20451;-68
2021/12/12 05:45:08;;;;;;;1999.90;999.90;;;2.80;99.90;;;;;;5047942;28;20453;-68
2021/12/12 05:47:35;;;;;;;1999.90;999.90;;;2.80;99.90;;;;;;5048847;28;20870;-67
2021/12/12 05:50:04;;;;;;;1999.90;999.90;;;3.00;99.90;;;;;;5047356;28;20612;-66
2021/12/12 05:52:31;;;;;;;1999.90;999.90;;;3.10;99.90;;;;;;5047773;28;20504;-68
2021/12/12 05:54:58;;;;;;;1999.90;999.90;;;3.20;99.90;;;;;;5048283;28;20458;-69
2021/12/12 05:57:27;;;;;;;1999.90;999.90;;;3.20;99.90;;;;;;5048173;28;20455;-68
2021/12/12 05:59:56;;;;;;;1999.90;999.90;;;3.00;99.90;;;;;;5048082;28;20450;-68
2021/12/12 06:02:24;;;;;;;1999.90;999.90;;;3.10;99.90;;;;;;5047706;28;20456;-67
2021/12/12 06:04:51;;;;;;;1999.90;999.90;;;3.00;99.90;;;;;;5047884;28;21651;-68
2021/12/12 06:07:20;;;;;;;1999.90;999.90;;;3.00;99.90;;;;;;5047922;28;20490;-68
2021/12/12 06:09:48;;;;;;;1999.90;999.90;;;3.00;99.90;;;;;;5048003;28;20504;-68
2021/12/12 06:12:16;;;;;;;1999.90;999.90;;;3.10;99.90;;;;;;5047565;28;20946;-69
2021/12/12 06:14:45;;;;;;;1999.90;999.90;;;3.20;99.90;;;;;;5047903;28;20474;-67
2021/12/12 06:17:14;;;;;;;1999.90;999.90;;;3.20;99.90;;;;;;5047591;28;20469;-70
2021/12/12 06:19:43;;;;;;;1999.90;999.90;;;3.20;99.90;;;;;;5047300;28;20482;-68
2021/12/12 06:22:10;;;;;;;1999.90;999.90;;;3.20;99.90;;;;;;5047326;28;20462;-69
2021/12/12 06:24:38;;;;;;;1999.90;999.90;;;3.20;99.90;;;;;;5048224;28;20478;-68
2021/12/12 06:27:08;;;;;;;1999.90;999.90;;;3.40;99.90;;;;;;5046978;28;21059;-68
2021/12/12 06:29:36;;;;;;;1999.90;999.90;;;3.40;99.90;;;;;;5047725;28;20450;-68
2021/12/12 06:32:06;;;;;;;1999.90;999.90;;;3.30;99.90;;;;;;5047478;28;20450;-69
2021/12/12 06:34:33;;;;;;;1999.90;999.90;;;3.30;99.90;;;;;;5047809;28;20474;-69
2021/12/12 06:37:00;;;;;;;1999.90;999.90;;;3.30;99.90;;;;;;5050956;28;20496;-68
2021/12/12 06:39:27;;;;;;;1999.90;999.90;;;3.30;99.90;;;;;;5051154;28;20458;-68
2021/12/12 06:41:55;;;;;;;1999.90;999.90;;;3.50;99.90;;;;;;5051340;28;20458;-68
2021/12/12 06:44:22;;;;;;;1999.90;999.90;;;3.70;99.90;;;;;;5052008;28;20466;-68
2021/12/12 06:46:50;;;;;;;1999.90;999.90;;;3.90;99.90;;;;;;5050923;28;20478;-69
2021/12/12 06:49:19;;;;;;;1999.90;999.90;;;4.10;99.90;;;;;;5053644;28;20579;-69
2021/12/12 06:51:50;;;;;;;1999.90;999.90;;;4.20;99.90;;;;;;5055230;28;20496;-69
2021/12/12 06:54:18;;;;;;;1999.90;999.90;;;4.20;99.90;;;;;;5055322;28;20564;-68
2021/12/12 06:56:45;;;;;;;1999.90;999.90;;;4.40;99.90;;;;;;5055032;28;20442;-68
2021/12/12 06:59:11;;;;;;;1999.90;999.90;;;4.50;99.90;;;;;;5053834;28;20446;-69
2021/12/12 07:01:38;;;;;;;1999.90;999.90;;;4.40;99.90;;;;;;5052055;28;20450;-69
2021/12/12 07:04:09;;;;;;;1999.90;999.90;;;4.30;99.90;;;;;;5051343;28;20531;-68
2021/12/12 07:06:39;;;;;;;1999.90;999.90;;;4.20;99.90;;;;;;5051301;28;20519;-69
2021/12/12 07:09:09;;;;;;;1999.90;999.90;;;4.00;99.90;;;;;;5050490;28;20860;-69
2021/12/12 07:11:38;;;;;;;1999.90;999.90;;;3.90;99.90;;;;;;5051575;28;20859;-68
2021/12/12 07:14:06;;;;;;;1999.90;999.90;;;3.90;99.90;;;;;;5050963;28;21469;-68
2021/12/12 07:16:33;;;;;;;1999.90;999.90;;;3.80;99.90;;;;;;5050179;28;20868;-69
2021/12/12 07:19:00;;;;;;;1999.90;999.90;;;3.70;99.90;;;;;;5051319;28;20454;-69
2021/12/12 07:21:27;;;;;;;1999.90;999.90;;;3.80;99.90;;;;;;5050367;28;20496;-69
2021/12/12 07:23:55;;;;;;;1999.90;999.90;;;3.80;99.90;;;;;;5050032;28;20486;-68
2021/12/12 07:26:24;;;;;;;1999.90;999.90;;;3.80;99.90;;;;;;5051133;28;20470;-68
2021/12/12 07:28:52;;;;;;;1999.90;999.90;;;3.70;99.90;;;;;;5050684;28;20557;-69
2021/12/12 07:31:24;;;;;;;1999.90;999.90;;;3.90;99.90;;;;;;5051424;28;20454;-69
2021/12/12 07:33:53;;;;;;;1999.90;999.90;;;3.90;99.90;;;;;;5050443;28;20532;-68
2021/12/12 07:36:21;;;;;;;1999.90;999.90;;;3.90;99.90;;;;;;5050356;28;20454;-70
2021/12/12 07:38:53;;;;;;;1999.90;999.90;;;3.90;99.90;;;;;;5050105;28;20823;-68
2021/12/12 07:41:24;;;;;;;1999.90;999.90;;;3.90;99.90;;;;;;5049619;28;20950;-68
2021/12/12 07:43:51;;;;;;;1999.90;999.90;;;3.90;99.90;;;;;;5050026;28;21071;-69
2021/12/12 07:46:19;;;;;;;1999.90;999.90;;;3.80;99.90;;;;;;5050274;28;20486;-70
2021/12/12 07:48:47;;;;;;;1999.90;999.90;;;4.10;99.90;;;;;;5049716;28;20875;-69
2021/12/12 07:51:14;;;;;;;1999.90;999.90;;;4.20;99.90;;;;;;5049638;28;21136;-69
2021/12/12 07:53:41;;;;;;;1999.90;999.90;;;4.10;99.90;;;;;;5053623;28;20458;-69
2021/12/12 07:56:08;;;;;;;1999.90;999.90;;;4.10;99.90;;;;;;5053788;28;20442;-69
2021/12/12 07:58:37;;;;;;;1999.90;999.90;;;3.90;99.90;;;;;;5054051;28;20476;-69
2021/12/12 08:01:06;;;;;;;1999.90;999.90;;;3.90;99.90;;;;;;5052410;28;20443;-69
2021/12/12 08:03:35;;;;;;;1999.90;999.90;;;3.90;99.90;;;;;;5049504;28;20899;-69
2021/12/12 08:06:03;;;;;;;1999.90;999.90;;;3.80;99.90;;;;;;5049263;28;20481;-69
2021/12/12 08:08:32;;;;;;;1999.90;999.90;;;3.80;99.90;;;;;;5049781;28;22037;-69
2021/12/12 08:11:00;;;;;;;1999.90;999.90;;;3.70;99.90;;;;;;5049576;28;20455;-69
2021/12/12 08:13:27;;;;;;;1999.90;999.90;;;3.80;99.90;;;;;;5049713;28;20536;-69
2021/12/12 08:15:55;;;;;;;1999.90;999.90;;;3.70;99.90;;;;;;5050318;28;20504;-69
2021/12/12 08:18:22;;;;;;;1999.90;999.90;;;3.80;99.90;;;;;;5049351;28;20966;-69
2021/12/12 08:20:52;;;;;;;1999.90;999.90;;;3.80;99.90;;;;;;5049875;28;20535;-69
2021/12/12 08:23:19;;;;;;;1999.90;999.90;;;4.00;99.90;;;;;;5050063;28;20531;-69
2021/12/12 08:25:48;;;;;;;1999.90;999.90;;;4.10;99.90;;;;;;5053113;28;20450;-69
2021/12/12 08:28:16;;;;;;;1999.90;999.90;;;4.20;99.90;;;;;;5053407;28;20438;-70
2021/12/12 08:30:44;;;;;;;1999.90;999.90;;;4.60;99.90;;;;;;5053381;28;20450;-70
2021/12/12 08:33:13;;;;;;;1999.90;999.90;;;4.70;99.90;;;;;;5054238;28;20467;-69
2021/12/12 08:35:41;;;;;;;1999.90;999.90;;;4.90;99.90;;;;;;5050177;28;20438;-70
2021/12/12 08:38:10;;;;;;;1999.90;999.90;;;5.00;99.90;;;;;;5050669;28;20442;-69
2021/12/12 08:40:43;;;;;;;1999.90;999.90;;;5.20;99.90;;;;;;5051255;28;20495;-69
2021/12/12 08:43:13;;;;;;;1999.90;999.90;;;5.40;99.90;;;;;;5050898;28;20528;-69
2021/12/12 08:45:43;;;;;;;1999.90;999.90;;;5.50;99.90;;;;;;5051261;28;20481;-69
2021/12/12 08:48:12;;;;;;;1999.90;999.90;;;5.60;99.90;;;;;;5050840;28;20442;-69
2021/12/12 08:50:41;;;;;;;1999.90;999.90;;;5.80;99.90;;;;;;5049266;28;20446;-70
2021/12/12 08:53:10;;;;;;;1999.90;999.90;;;5.80;99.90;;;;;;5048653;28;20470;-67
2021/12/12 08:55:44;;;;;;;1999.90;999.90;;;5.80;99.90;;;;;;5050918;28;20458;-69
2021/12/12 08:58:17;;;;;;;1999.90;999.90;;;5.70;99.90;;;;;;5049449;28;20454;-69
2021/12/12 09:00:51;;;;;;;1999.90;999.90;;;5.70;99.90;;;;;;5049449;28;20447;-69
2021/12/12 09:03:22;;;;;;;1999.90;999.90;;;5.70;99.90;;;;;;5049439;28;20519;-70
2021/12/12 09:05:49;;;;;;;1999.90;999.90;;;5.70;99.90;;;;;;5049409;28;20435;-70
2021/12/12 09:08:23;;;;;;;1999.90;999.90;;;5.80;99.90;;;;;;5050259;28;20482;-70
2021/12/12 09:10:59;;;;;;;1999.90;999.90;;;5.70;99.90;;;;;;5050375;28;20473;-70
2021/12/12 09:13:30;;;;;;;1999.90;999.90;;;5.70;99.90;;;;;;5051539;28;20473;-70
2021/12/12 09:16:04;;;;;;;1999.90;999.90;;;5.50;99.90;;;;;;5051395;28;20504;-70
2021/12/12 09:18:37;;;;;;;1999.90;999.90;;;5.50;99.90;;;;;;5051013;28;20450;-70
2021/12/12 09:21:09;;;;;;;1999.90;999.90;;;5.50;99.90;;;;;;5051159;28;20815;-69
2021/12/12 09:23:42;;;;;;;1999.90;999.90;;;5.20;99.90;;;;;;5049566;28;20556;-70
2021/12/12 09:26:14;;;;;;;1999.90;999.90;;;5.20;99.90;;;;;;5050068;28;20481;-70
2021/12/12 09:28:45;;;;;;;1999.90;999.90;;;5.20;99.90;;;;;;5048682;28;20529;-69
2021/12/12 09:31:15;;;;;;;1999.90;999.90;;;5.00;99.90;;;;;;5047438;28;20476;-69
2021/12/12 09:33:49;;;;;;;1999.90;999.90;;;4.90;99.90;;;;;;5048073;28;20527;-68
2021/12/12 09:36:19;;;;;;;1999.90;999.90;;;4.80;99.90;;;;;;5052020;28;20504;-69
2021/12/12 09:38:52;;;;;;;1999.90;999.90;;;4.70;99.90;;;;;;5053077;28;20431;-71
2021/12/12 09:41:31;;;;;;;1999.90;999.90;;;4.70;99.90;;;;;;5053197;28;20776;-69
2021/12/12 09:44:17;;;;;;;1999.90;999.90;;;4.50;99.90;;;;;;5053003;28;20458;-69
2021/12/12 09:47:25;;;;;;;1999.90;999.90;;;4.50;99.90;;;;;;5048107;28;20466;-69
2021/12/12 09:53:23;;;;;;;1999.90;999.90;;;4.60;99.90;;;;;;5048131;28;20945;-71
2021/12/12 09:55:53;;;;;;;1999.90;999.90;;;4.70;99.90;;;;;;5041528;28;20464;-69
2021/12/12 09:58:29;;;;;;;1999.90;999.90;;;4.70;99.90;;;;;;5050315;28;20438;-69
2021/12/12 10:01:01;;;;;;;1999.90;999.90;;;4.80;99.90;;;;;;5049705;28;20550;-69
2021/12/12 10:03:33;;;;;;;1999.90;999.90;;;4.90;99.90;;;;;;5049423;28;20481;-69
2021/12/12 10:06:09;;;;;;;1999.90;999.90;;;5.10;99.90;;;;;;5050258;28;20505;-69
2021/12/12 10:08:48;;;;;;;1999.90;999.90;;;5.10;99.90;;;;;;5050521;28;20446;-69
2021/12/12 10:11:25;;;;;;;1999.90;999.90;;;5.20;99.90;;;;;;5055136;28;20453;-70
2021/12/12 10:14:01;;;;;;;1999.90;999.90;;;5.30;99.90;;;;;;5055208;28;20469;-69
2021/12/12 10:16:34;;;;;;;1999.90;999.90;;;5.40;99.90;;;;;;5054770;28;20430;-69
2021/12/12 10:19:08;;;;;;;1999.90;999.90;;;5.60;99.90;;;;;;5054486;28;20438;-69
2021/12/12 10:21:45;;;;;;;1999.90;999.90;;;5.70;99.90;;;;;;5052908;28;20468;-70
2021/12/12 10:24:25;;;;;;;1999.90;999.90;;;5.90;99.90;;;;;;5054265;28;20470;-70
2021/12/12 10:26:59;;;;;;;1999.90;999.90;;;6.10;99.90;;;;;;5053257;28;20492;-70
2021/12/12 10:29:30;;;;;;;1999.90;999.90;;;6.20;99.90;;;;;;5053259;28;20449;-69
2021/12/12 10:32:04;;;;;;;1999.90;999.90;;;6.40;99.90;;;;;;5052613;28;20455;-69
2021/12/12 10:34:35;;;;;;;1999.90;999.90;;;6.40;99.90;;;;;;5052408;28;20466;-70
2021/12/12 10:37:09;;;;;;;1999.90;999.90;;;6.70;99.90;;;;;;5055130;28;20449;-69
2021/12/12 10:39:39;;;;;;;1999.90;999.90;;;6.60;99.90;;;;;;5054254;28;20442;-70
2021/12/12 10:42:10;;;;;;;1999.90;999.90;;;6.70;99.90;;;;;;5052456;28;20442;-69
2021/12/12 10:44:41;;;;;;;1999.90;999.90;;;6.70;99.90;;;;;;5054847;28;20463;-69
2021/12/12 10:47:13;;;;;;;1999.90;999.90;;;6.70;99.90;;;;;;5054246;28;20473;-68
2021/12/12 10:49:52;;;;;;;1999.90;999.90;;;6.70;99.90;;;;;;5054713;28;20496;-69
2021/12/12 10:52:30;;;;;;;1999.90;999.90;;;6.70;99.90;;;;;;5054026;28;20997;-70
2021/12/12 10:55:00;;;;;;;1999.90;999.90;;;6.80;99.90;;;;;;5053998;28;21212;-69
2021/12/12 10:57:30;;;;;;;1999.90;999.90;;;6.70;99.90;;;;;;5053769;28;20454;-69
2021/12/12 11:00:06;;;;;;;1999.90;999.90;;;6.70;99.90;;;;;;5053143;28;20500;-69
2021/12/12 11:02:37;;;;;;;1999.90;999.90;;;6.50;99.90;;;;;;5050830;28;20933;-66
2021/12/12 11:05:10;;;;;;;1999.90;999.90;;;6.70;99.90;;;;;;5051595;28;20508;-68
2021/12/12 11:07:46;;;;;;;1999.90;999.90;;;6.80;99.90;;;;;;5051218;28;20473;-69
2021/12/12 11:10:17;;;;;;;1999.90;999.90;;;7.00;99.90;;;;;;5050587;28;20438;-69
2021/12/12 11:12:49;;;;;;;1999.90;999.90;;;7.00;99.90;;;;;;5050449;28;20453;-68
2021/12/12 11:15:21;;;;;;;1999.90;999.90;;;7.00;99.90;;;;;;5050760;28;20879;-68
2021/12/12 11:17:55;;;;;;;1999.90;999.90;;;6.90;99.90;;;;;;5050865;28;20447;-69
2021/12/12 11:20:25;;;;;;;1999.90;999.90;;;7.00;99.90;;;;;;5049928;28;20497;-71
2021/12/12 11:22:57;;;;;;;1999.90;999.90;;;7.00;99.90;;;;;;5050327;28;20454;-69
2021/12/12 11:25:28;;;;;;;1999.90;999.90;;;7.00;99.90;;;;;;5054874;28;20783;-69
2021/12/12 11:27:59;;;;;;;1999.90;999.90;;;7.10;99.90;;;;;;5055214;28;20466;-69
2021/12/12 11:30:30;;;;;;;1999.90;999.90;;;7.10;99.90;;;;;;5055020;28;20434;-69
2021/12/12 11:32:58;;;;;;;1999.90;999.90;;;7.20;99.90;;;;;;5054615;28;21187;-69
2021/12/12 11:35:26;;;;;;;1999.90;999.90;;;7.20;99.90;;;;;;5052587;28;20469;-69
2021/12/12 11:37:58;;;;;;;1999.90;999.90;;;7.30;99.90;;;;;;5053823;28;20516;-70
2021/12/12 11:40:30;;;;;;;1999.90;999.90;;;7.40;99.90;;;;;;5053929;28;20520;-70
2021/12/12 11:43:04;;;;;;;1999.90;999.90;;;7.50;99.90;;;;;;5053761;28;20469;-69
2021/12/12 11:45:38;;;;;;;1999.90;999.90;;;7.60;99.90;;;;;;5053375;28;20453;-70
2021/12/12 11:48:15;;;;;;;1999.90;999.90;;;7.70;99.90;;;;;;5053568;28;21000;-69
2021/12/12 11:50:50;;;;;;;1999.90;999.90;;;7.80;99.90;;;;;;5052678;28;20457;-71
2021/12/12 11:53:24;;;;;;;1999.90;999.90;;;7.90;99.90;;;;;;5053812;28;20473;-69
2021/12/12 11:55:55;;;;;;;1999.90;999.90;;;8.00;99.90;;;;;;5052310;28;20846;-70
2021/12/12 11:58:32;;;;;;;1999.90;999.90;;;7.80;99.90;;;;;;5053796;28;20450;-69
2021/12/12 12:01:06;;;;;;;1999.90;999.90;;;7.90;99.90;;;;;;5054141;28;20840;-70
2021/12/12 12:03:47;;;;;;;1999.90;999.90;;;7.90;99.90;;;;;;5053091;28;20482;-68
2021/12/12 12:06:21;;;;;;;1999.90;999.90;;;8.00;99.90;;;;;;5053327;28;20507;-69
2021/12/12 12:09:17;;;;;;;1999.90;999.90;;;7.90;99.90;;;;;;5051108;28;20466;-70
2021/12/12 12:12:09;;;;;;;1999.90;999.90;;;7.90;99.90;;;;;;5049888;28;20439;-69
2021/12/12 12:14:45;;;;;;;1999.90;999.90;;;8.00;99.90;;;;;;5041366;28;20564;-69
2021/12/12 12:17:16;;;;;;;1999.90;999.90;;;8.10;99.90;;;;;;5049420;28;20505;-70
2021/12/12 12:19:56;;;;;;;1999.90;999.90;;;8.10;99.90;;;;;;5050547;28;20442;-70
2021/12/12 12:22:33;;;;;;;1999.90;999.90;;;8.10;99.90;;;;;;5049809;28;20492;-68
2021/12/12 12:25:16;;;;;;;1999.90;999.90;;;8.10;99.90;;;;;;5050857;28;20880;-68
2021/12/12 12:27:48;;;;;;;1999.90;999.90;;;7.90;99.90;;;;;;5052357;28;20462;-69
2021/12/12 12:30:51;;;;;;;1999.90;999.90;;;8.00;99.90;;;;;;5054528;28;20881;-69
2021/12/12 12:34:01;;;;;;;1999.90;999.90;;;8.00;99.90;;;;;;5055036;28;20474;-69
2021/12/12 12:37:26;;;;;;;1999.90;999.90;;;8.00;99.90;;;;;;5056309;28;20435;-69
2021/12/12 12:40:28;;;;;;;1999.90;999.90;;;8.00;99.90;;;;;;5055404;28;20938;-67
2021/12/12 12:44:00;;;;;;;1999.90;999.90;;;8.00;99.90;;;;;;5015113;28;20523;-69
2021/12/12 12:47:04;;;;;;;1999.90;999.90;;;8.00;99.90;;;;;;5055869;28;20446;-70